sensor_id;sensor_type;location;lat;lon;timestamp;pressure;altitude;pressure_sealevel;temperature;humidity
66273;BME280;58450;52.150;4.466;2023-08-07T00:01:55;101382.13;;;16.13;100.00
66273;BME280;58450;52.150;4.466;2023-08-07T00:04:23;101386.75;;;16.06;100.00
66273;BME280;58450;52.150;4.466;2023-08-07T00:06:50;101391.50;;;16.24;100.00
66273;BME280;58450;52.150;4.466;2023-08-07T00:09:19;101390.06;;;16.15;100.00
66273;BME280;58450;52.150;4.466;2023-08-07T00:11:47;101382.94;;;16.27;100.00
66273;BME280;58450;52.150;4.466;2023-08-07T00:14:14;101385.88;;;16.19;100.00
66273;BME280;58450;52.150;4.466;2023-08-07T00:16:42;101394.44;;;16.22;100.00
66273;BME280;58450;52.150;4.466;2023-08-07T00:19:10;101387.97;;;16.23;100.00
66273;BME280;58450;52.150;4.466;2023-08-07T00:21:38;101379.59;;;16.25;100.00
66273;BME280;58450;52.150;4.466;2023-08-07T00:24:06;101397.38;;;16.14;100.00
66273;BME280;58450;52.150;4.466;2023-08-07T00:26:35;101452.47;;;15.74;100.00
66273;BME280;58450;52.150;4.466;2023-08-07T00:29:02;101389.59;;;15.30;100.00
66273;BME280;58450;52.150;4.466;2023-08-07T00:31:30;101397.50;;;15.32;100.00
66273;BME280;58450;52.150;4.466;2023-08-07T00:33:57;101400.88;;;15.41;100.00
66273;BME280;58450;52.150;4.466;2023-08-07T00:36:25;101403.78;;;15.46;100.00
66273;BME280;58450;52.150;4.466;2023-08-07T00:38:54;101399.84;;;15.62;100.00
66273;BME280;58450;52.150;4.466;2023-08-07T00:41:23;101399.22;;;15.60;100.00
66273;BME280;58450;52.150;4.466;2023-08-07T00:43:51;101394.84;;;15.79;100.00
66273;BME280;58450;52.150;4.466;2023-08-07T00:46:19;101409.91;;;15.81;100.00
66273;BME280;58450;52.150;4.466;2023-08-07T00:48:47;101404.66;;;15.66;100.00
66273;BME280;58450;52.150;4.466;2023-08-07T00:51:15;101417.16;;;15.54;100.00
66273;BME280;58450;52.150;4.466;2023-08-07T00:53:43;101411.75;;;15.61;100.00
66273;BME280;58450;52.150;4.466;2023-08-07T00:56:11;101399.00;;;15.55;100.00
66273;BME280;58450;52.150;4.466;2023-08-07T00:58:39;101405.66;;;15.52;100.00
66273;BME280;58450;52.150;4.466;2023-08-07T01:01:08;101402.56;;;15.42;100.00
66273;BME280;58450;52.150;4.466;2023-08-07T01:03:36;101399.63;;;15.50;100.00
66273;BME280;58450;52.150;4.466;2023-08-07T01:06:04;101414.25;;;15.56;100.00
66273;BME280;58450;52.150;4.466;2023-08-07T01:08:33;101408.84;;;15.69;100.00
66273;BME280;58450;52.150;4.466;2023-08-07T01:11:20;101413.69;;;15.87;100.00
66273;BME280;58450;52.150;4.466;2023-08-07T01:14:02;101416.34;;;15.74;100.00
66273;BME280;58450;52.150;4.466;2023-08-07T01:16:42;101417.19;;;15.68;100.00
66273;BME280;58450;52.150;4.466;2023-08-07T01:19:22;101413.19;;;15.63;100.00
66273;BME280;58450;52.150;4.466;2023-08-07T01:22:05;101414.03;;;15.57;100.00
66273;BME280;58450;52.150;4.466;2023-08-07T01:24:34;101429.63;;;15.35;100.00
66273;BME280;58450;52.150;4.466;2023-08-07T01:27:18;101432.53;;;15.27;100.00
66273;BME280;58450;52.150;4.466;2023-08-07T01:30:11;101425.00;;;15.15;100.00
66273;BME280;58450;52.150;4.466;2023-08-07T01:32:49;101412.72;;;15.26;100.00
66273;BME280;58450;52.150;4.466;2023-08-07T01:35:27;101420.00;;;15.19;100.00
66273;BME280;58450;52.150;4.466;2023-08-07T01:38:01;101415.66;;;15.31;100.00
66273;BME280;58450;52.150;4.466;2023-08-07T01:40:29;101413.81;;;15.45;100.00
66273;BME280;58450;52.150;4.466;2023-08-07T01:42:58;101412.78;;;15.40;100.00
66273;BME280;58450;52.150;4.466;2023-08-07T01:45:26;101422.16;;;15.57;100.00
66273;BME280;58450;52.150;4.466;2023-08-07T01:47:55;101411.34;;;15.71;100.00
66273;BME280;58450;52.150;4.466;2023-08-07T01:50:23;101422.59;;;15.68;100.00
66273;BME280;58450;52.150;4.466;2023-08-07T01:52:51;101411.78;;;15.74;100.00
66273;BME280;58450;52.150;4.466;2023-08-07T01:55:22;101410.13;;;15.87;100.00
66273;BME280;58450;52.150;4.466;2023-08-07T01:57:50;101408.66;;;15.91;100.00
66273;BME280;58450;52.150;4.466;2023-08-07T02:00:18;101416.78;;;15.91;100.00
66273;BME280;58450;52.150;4.466;2023-08-07T02:02:46;101418.91;;;15.89;100.00
66273;BME280;58450;52.150;4.466;2023-08-07T02:05:14;101422.22;;;16.04;100.00
66273;BME280;58450;52.150;4.466;2023-08-07T02:07:44;101427.03;;;16.09;100.00
66273;BME280;58450;52.150;4.466;2023-08-07T02:10:12;101434.56;;;16.07;100.00
66273;BME280;58450;52.150;4.466;2023-08-07T02:12:41;101419.94;;;16.01;100.00
66273;BME280;58450;52.150;4.466;2023-08-07T02:15:09;101420.13;;;15.93;100.00
66273;BME280;58450;52.150;4.466;2023-08-07T02:17:37;101423.88;;;15.92;100.00
66273;BME280;58450;52.150;4.466;2023-08-07T02:20:07;101426.41;;;15.93;100.00
66273;BME280;58450;52.150;4.466;2023-08-07T02:22:36;101421.34;;;15.77;100.00
66273;BME280;58450;52.150;4.466;2023-08-07T02:25:04;101425.31;;;15.68;100.00
66273;BME280;58450;52.150;4.466;2023-08-07T02:27:32;101433.00;;;15.57;100.00
66273;BME280;58450;52.150;4.466;2023-08-07T02:30:01;101433.25;;;15.76;100.00
66273;BME280;58450;52.150;4.466;2023-08-07T02:32:30;101432.81;;;15.65;100.00
66273;BME280;58450;52.150;4.466;2023-08-07T02:34:57;101434.91;;;15.63;100.00
66273;BME280;58450;52.150;4.466;2023-08-07T02:37:25;101428.81;;;15.34;100.00
66273;BME280;58450;52.150;4.466;2023-08-07T02:39:52;101428.78;;;15.21;100.00
66273;BME280;58450;52.150;4.466;2023-08-07T02:42:20;101425.63;;;15.17;100.00
66273;BME280;58450;52.150;4.466;2023-08-07T02:44:48;101425.44;;;15.19;100.00
66273;BME280;58450;52.150;4.466;2023-08-07T02:47:17;101421.28;;;15.23;100.00
66273;BME280;58450;52.150;4.466;2023-08-07T02:49:44;101426.50;;;15.31;100.00
66273;BME280;58450;52.150;4.466;2023-08-07T02:52:12;101423.00;;;15.38;100.00
66273;BME280;58450;52.150;4.466;2023-08-07T02:54:39;101420.50;;;15.56;100.00
66273;BME280;58450;52.150;4.466;2023-08-07T02:57:07;101425.91;;;15.49;100.00
66273;BME280;58450;52.150;4.466;2023-08-07T02:59:34;101440.53;;;15.55;100.00
66273;BME280;58450;52.150;4.466;2023-08-07T03:02:02;101428.66;;;15.70;100.00
66273;BME280;58450;52.150;4.466;2023-08-07T03:04:31;101428.25;;;15.79;100.00
66273;BME280;58450;52.150;4.466;2023-08-07T03:06:59;101424.50;;;15.80;100.00
66273;BME280;58450;52.150;4.466;2023-08-07T03:09:27;101423.50;;;15.88;100.00
66273;BME280;58450;52.150;4.466;2023-08-07T03:11:55;101437.44;;;15.78;100.00
66273;BME280;58450;52.150;4.466;2023-08-07T03:14:23;101413.63;;;15.74;100.00
66273;BME280;58450;52.150;4.466;2023-08-07T03:16:50;101423.66;;;15.80;100.00
66273;BME280;58450;52.150;4.466;2023-08-07T03:19:18;101429.09;;;15.80;100.00
66273;BME280;58450;52.150;4.466;2023-08-07T03:21:49;101425.13;;;15.83;100.00
66273;BME280;58450;52.150;4.466;2023-08-07T03:24:16;101421.78;;;15.74;100.00
66273;BME280;58450;52.150;4.466;2023-08-07T03:26:44;101421.78;;;15.80;100.00
66273;BME280;58450;52.150;4.466;2023-08-07T03:29:13;101419.28;;;15.79;100.00
66273;BME280;58450;52.150;4.466;2023-08-07T03:31:40;101412.19;;;15.71;100.00
66273;BME280;58450;52.150;4.466;2023-08-07T03:34:08;101435.53;;;15.65;100.00
66273;BME280;58450;52.150;4.466;2023-08-07T03:36:36;101424.09;;;15.70;100.00
66273;BME280;58450;52.150;4.466;2023-08-07T03:39:05;101434.75;;;15.78;100.00
66273;BME280;58450;52.150;4.466;2023-08-07T03:41:32;101427.00;;;15.75;100.00
66273;BME280;58450;52.150;4.466;2023-08-07T03:44:00;101423.66;;;15.80;100.00
66273;BME280;58450;52.150;4.466;2023-08-07T03:46:27;101429.91;;;15.74;100.00
66273;BME280;58450;52.150;4.466;2023-08-07T03:48:55;101423.44;;;15.75;100.00
66273;BME280;58450;52.150;4.466;2023-08-07T03:51:22;101429.53;;;15.90;100.00
66273;BME280;58450;52.150;4.466;2023-08-07T03:53:50;101423.88;;;15.92;100.00
66273;BME280;58450;52.150;4.466;2023-08-07T03:56:19;101429.53;;;15.90;100.00
66273;BME280;58450;52.150;4.466;2023-08-07T03:58:47;101420.97;;;15.93;100.00
66273;BME280;58450;52.150;4.466;2023-08-07T04:01:16;101427.63;;;15.84;100.00
66273;BME280;58450;52.150;4.466;2023-08-07T04:03:46;101425.16;;;15.89;100.00
66273;BME280;58450;52.150;4.466;2023-08-07T04:06:13;101429.13;;;15.93;100.00
66273;BME280;58450;52.150;4.466;2023-08-07T04:08:42;101421.63;;;15.95;100.00
66273;BME280;58450;52.150;4.466;2023-08-07T04:11:09;101436.66;;;16.05;100.00
66273;BME280;58450;52.150;4.466;2023-08-07T04:13:38;101430.38;;;16.04;100.00
66273;BME280;58450;52.150;4.466;2023-08-07T04:16:06;101430.56;;;16.09;100.00
66273;BME280;58450;52.150;4.466;2023-08-07T04:18:33;101441.81;;;15.86;100.00
66273;BME280;58450;52.150;4.466;2023-08-07T04:21:01;101443.94;;;15.91;100.00
66273;BME280;58450;52.150;4.466;2023-08-07T04:23:29;101450.59;;;15.81;100.00
66273;BME280;58450;52.150;4.466;2023-08-07T04:25:57;101439.13;;;15.79;100.00
66273;BME280;58450;52.150;4.466;2023-08-07T04:28:25;101443.91;;;15.77;100.00
66273;BME280;58450;52.150;4.466;2023-08-07T04:30:56;101453.28;;;15.75;100.00
66273;BME280;58450;52.150;4.466;2023-08-07T04:33:23;101441.44;;;15.89;100.00
66273;BME280;58450;52.150;4.466;2023-08-07T04:35:51;101442.28;;;15.97;100.00
66273;BME280;58450;52.150;4.466;2023-08-07T04:38:19;101443.53;;;15.94;100.00
66273;BME280;58450;52.150;4.466;2023-08-07T04:40:47;101450.84;;;15.87;100.00
66273;BME280;58450;52.150;4.466;2023-08-07T04:43:17;101462.31;;;15.95;100.00
66273;BME280;58450;52.150;4.466;2023-08-07T04:45:46;101456.69;;;15.90;100.00
66273;BME280;58450;52.150;4.466;2023-08-07T04:48:15;101459.34;;;15.77;100.00
66273;BME280;58450;52.150;4.466;2023-08-07T04:50:43;101451.25;;;15.90;100.00
66273;BME280;58450;52.150;4.466;2023-08-07T04:53:11;101448.13;;;15.93;100.00
66273;BME280;58450;52.150;4.466;2023-08-07T04:55:39;101459.16;;;15.85;100.00
66273;BME280;58450;52.150;4.466;2023-08-07T04:58:06;101472.16;;;15.90;100.00
66273;BME280;58450;52.150;4.466;2023-08-07T05:00:34;101483.97;;;15.69;100.00
66273;BME280;58450;52.150;4.466;2023-08-07T05:03:02;101468.28;;;15.57;100.00
66273;BME280;58450;52.150;4.466;2023-08-07T05:05:31;101486.41;;;15.43;100.00
66273;BME280;58450;52.150;4.466;2023-08-07T05:07:59;101493.22;;;15.26;100.00
66273;BME280;58450;52.150;4.466;2023-08-07T05:10:26;101480.94;;;15.30;100.00
66273;BME280;58450;52.150;4.466;2023-08-07T05:12:55;101470.44;;;15.13;100.00
66273;BME280;58450;52.150;4.466;2023-08-07T05:15:22;101478.69;;;15.40;100.00
66273;BME280;58450;52.150;4.466;2023-08-07T05:17:51;101480.97;;;15.36;100.00
66273;BME280;58450;52.150;4.466;2023-08-07T05:20:20;101497.22;;;15.30;100.00
66273;BME280;58450;52.150;4.466;2023-08-07T05:22:48;101506.75;;;15.19;100.00
66273;BME280;58450;52.150;4.466;2023-08-07T05:25:17;101490.91;;;15.22;100.00
66273;BME280;58450;52.150;4.466;2023-08-07T05:27:45;101494.81;;;15.06;100.00
66273;BME280;58450;52.150;4.466;2023-08-07T05:30:13;101490.66;;;15.11;100.00
66273;BME280;58450;52.150;4.466;2023-08-07T05:32:41;101480.94;;;15.23;100.00
66273;BME280;58450;52.150;4.466;2023-08-07T05:35:09;101488.38;;;15.14;100.00
66273;BME280;58450;52.150;4.466;2023-08-07T05:37:37;101479.94;;;15.38;100.00
66273;BME280;58450;52.150;4.466;2023-08-07T05:40:07;101482.25;;;15.47;100.00
66273;BME280;58450;52.150;4.466;2023-08-07T05:42:37;101496.44;;;15.56;100.00
66273;BME280;58450;52.150;4.466;2023-08-07T05:45:07;101499.84;;;15.65;100.00
66273;BME280;58450;52.150;4.466;2023-08-07T05:47:36;101499.44;;;15.75;100.00
66273;BME280;58450;52.150;4.466;2023-08-07T05:50:05;101504.84;;;15.75;100.00
66273;BME280;58450;52.150;4.466;2023-08-07T05:52:33;101504.09;;;15.88;100.00
66273;BME280;58450;52.150;4.466;2023-08-07T05:55:00;101512.59;;;15.78;100.00
66273;BME280;58450;52.150;4.466;2023-08-07T05:57:29;101507.63;;;15.88;100.00
66273;BME280;58450;52.150;4.466;2023-08-07T05:59:57;101503.63;;;15.77;100.00
66273;BME280;58450;52.150;4.466;2023-08-07T06:02:25;101516.34;;;15.77;100.00
66273;BME280;58450;52.150;4.466;2023-08-07T06:04:52;101530.56;;;15.86;100.00
66273;BME280;58450;52.150;4.466;2023-08-07T06:07:20;101519.75;;;15.92;100.00
66273;BME280;58450;52.150;4.466;2023-08-07T06:09:47;101523.25;;;15.79;100.00
66273;BME280;58450;52.150;4.466;2023-08-07T06:12:15;101523.72;;;15.90;100.00
66273;BME280;58450;52.150;4.466;2023-08-07T06:14:44;101514.50;;;15.91;100.00
66273;BME280;58450;52.150;4.466;2023-08-07T06:17:12;101529.56;;;15.93;100.00
66273;BME280;58450;52.150;4.466;2023-08-07T06:19:39;101525.97;;;15.86;100.00
66273;BME280;58450;52.150;4.466;2023-08-07T06:22:07;101534.13;;;15.93;100.00
66273;BME280;58450;52.150;4.466;2023-08-07T06:24:34;101528.31;;;15.89;100.00
66273;BME280;58450;52.150;4.466;2023-08-07T06:27:02;101539.38;;;15.94;100.00
66273;BME280;58450;52.150;4.466;2023-08-07T06:29:30;101527.31;;;16.37;100.00
66273;BME280;58450;52.150;4.466;2023-08-07T06:31:59;101539.22;;;16.50;100.00
66273;BME280;58450;52.150;4.466;2023-08-07T06:34:26;101543.81;;;16.69;100.00
66273;BME280;58450;52.150;4.466;2023-08-07T06:36:54;101554.66;;;16.63;100.00
66273;BME280;58450;52.150;4.466;2023-08-07T06:39:22;101550.91;;;16.57;100.00
66273;BME280;58450;52.150;4.466;2023-08-07T06:41:50;101545.47;;;16.44;100.00
66273;BME280;58450;52.150;4.466;2023-08-07T06:44:17;101556.97;;;16.73;100.00
66273;BME280;58450;52.150;4.466;2023-08-07T06:46:45;101553.63;;;16.50;100.00
66273;BME280;58450;52.150;4.466;2023-08-07T06:49:14;101545.28;;;16.38;100.00
66273;BME280;58450;52.150;4.466;2023-08-07T06:51:41;101551.09;;;16.55;100.00
66273;BME280;58450;52.150;4.466;2023-08-07T06:54:09;101555.06;;;16.73;100.00
66273;BME280;58450;52.150;4.466;2023-08-07T06:56:36;101547.13;;;16.51;100.00
66273;BME280;58450;52.150;4.466;2023-08-07T06:59:07;101561.97;;;16.82;100.00
66273;BME280;58450;52.150;4.466;2023-08-07T07:01:34;101568.88;;;16.78;100.00
66273;BME280;58450;52.150;4.466;2023-08-07T07:04:02;101564.28;;;16.72;100.00
66273;BME280;58450;52.150;4.466;2023-08-07T07:06:31;101557.59;;;16.75;100.00
66273;BME280;58450;52.150;4.466;2023-08-07T07:08:58;101566.78;;;16.67;100.00
66273;BME280;58450;52.150;4.466;2023-08-07T07:11:26;101568.22;;;16.90;100.00
66273;BME280;58450;52.150;4.466;2023-08-07T07:13:54;101564.66;;;16.96;100.00
66273;BME280;58450;52.150;4.466;2023-08-07T07:16:21;101574.69;;;17.16;100.00
66273;BME280;58450;52.150;4.466;2023-08-07T07:18:49;101580.25;;;17.41;100.00
66273;BME280;58450;52.150;4.466;2023-08-07T07:21:17;101586.31;;;17.43;100.00
66273;BME280;58450;52.150;4.466;2023-08-07T07:23:47;101583.75;;;17.55;100.00
66273;BME280;58450;52.150;4.466;2023-08-07T07:26:15;101573.28;;;17.97;100.00
66273;BME280;58450;52.150;4.466;2023-08-07T07:28:42;101575.41;;;17.95;100.00
66273;BME280;58450;52.150;4.466;2023-08-07T07:31:10;101597.97;;;17.57;100.00
66273;BME280;58450;52.150;4.466;2023-08-07T07:33:37;101588.22;;;17.81;100.00
66273;BME280;58450;52.150;4.466;2023-08-07T07:36:07;101587.00;;;17.77;100.00
66273;BME280;58450;52.150;4.466;2023-08-07T07:38:40;101593.88;;;17.41;100.00
66273;BME280;58450;52.150;4.466;2023-08-07T07:41:09;101603.56;;;16.96;100.00
66273;BME280;58450;52.150;4.466;2023-08-07T07:43:37;101598.78;;;17.64;100.00
66273;BME280;58450;52.150;4.466;2023-08-07T07:46:04;101594.28;;;17.90;100.00
66273;BME280;58450;52.150;4.466;2023-08-07T07:48:32;101594.47;;;17.95;100.00
66273;BME280;58450;52.150;4.466;2023-08-07T07:51:00;101601.91;;;18.45;100.00
66273;BME280;58450;52.150;4.466;2023-08-07T07:53:29;101599.22;;;18.89;100.00
66273;BME280;58450;52.150;4.466;2023-08-07T07:55:57;101611.41;;;19.49;100.00
66273;BME280;58450;52.150;4.466;2023-08-07T07:58:26;101606.66;;;19.26;100.00
66273;BME280;58450;52.150;4.466;2023-08-07T08:00:53;101616.97;;;19.43;100.00
66273;BME280;58450;52.150;4.466;2023-08-07T08:03:21;101614.53;;;19.16;100.00
66273;BME280;58450;52.150;4.466;2023-08-07T08:05:50;101612.31;;;19.81;100.00
66273;BME280;58450;52.150;4.466;2023-08-07T08:08:18;101616.59;;;19.88;97.26
66273;BME280;58450;52.150;4.466;2023-08-07T08:10:46;101617.22;;;20.21;93.58
66273;BME280;58450;52.150;4.466;2023-08-07T08:13:14;101626.78;;;19.81;93.10
66273;BME280;58450;52.150;4.466;2023-08-07T08:15:44;101624.16;;;19.56;92.43
66273;BME280;58450;52.150;4.466;2023-08-07T08:18:12;101631.38;;;19.99;92.00
66273;BME280;58450;52.150;4.466;2023-08-07T08:20:40;101624.03;;;19.81;89.43
66273;BME280;58450;52.150;4.466;2023-08-07T08:23:07;101628.19;;;20.02;89.37
66273;BME280;58450;52.150;4.466;2023-08-07T08:25:35;101628.97;;;20.76;87.55
66273;BME280;58450;52.150;4.466;2023-08-07T08:28:03;101637.22;;;21.11;87.39
66273;BME280;58450;52.150;4.466;2023-08-07T08:30:31;101636.38;;;21.11;89.63
66273;BME280;58450;52.150;4.466;2023-08-07T08:33:00;101645.09;;;20.96;90.40
66273;BME280;58450;52.150;4.466;2023-08-07T08:35:28;101644.72;;;20.92;90.17
66273;BME280;58450;52.150;4.466;2023-08-07T08:37:57;101652.09;;;20.49;88.86
66273;BME280;58450;52.150;4.466;2023-08-07T08:40:25;101655.53;;;19.28;97.07
66273;BME280;58450;52.150;4.466;2023-08-07T08:42:54;101662.28;;;19.25;99.11
66273;BME280;58450;52.150;4.466;2023-08-07T08:45:25;101670.94;;;19.41;100.00
66273;BME280;58450;52.150;4.466;2023-08-07T08:47:55;101675.03;;;18.81;100.00
66273;BME280;58450;52.150;4.466;2023-08-07T08:50:30;101665.22;;;18.09;100.00
66273;BME280;58450;52.150;4.466;2023-08-07T08:53:02;101671.75;;;17.94;100.00
66273;BME280;58450;52.150;4.466;2023-08-07T08:55:30;101668.38;;;18.06;100.00
66273;BME280;58450;52.150;4.466;2023-08-07T08:57:59;101682.28;;;17.77;100.00
66273;BME280;58450;52.150;4.466;2023-08-07T09:00:28;101668.34;;;18.76;100.00
66273;BME280;58450;52.150;4.466;2023-08-07T09:02:57;101668.66;;;19.38;100.00
66273;BME280;58450;52.150;4.466;2023-08-07T09:05:27;101675.50;;;20.45;96.50
66273;BME280;58450;52.150;4.466;2023-08-07T09:07:55;101664.25;;;19.55;97.41
66273;BME280;58450;52.150;4.466;2023-08-07T09:10:24;101667.00;;;19.11;100.00
66273;BME280;58450;52.150;4.466;2023-08-07T09:12:55;101668.06;;;19.36;99.21
66273;BME280;58450;52.150;4.466;2023-08-07T09:15:28;101672.00;;;19.77;99.07
66273;BME280;58450;52.150;4.466;2023-08-07T09:17:57;101671.50;;;20.60;91.53
66273;BME280;58450;52.150;4.466;2023-08-07T09:20:27;101693.66;;;20.28;91.47
66273;BME280;58450;52.150;4.466;2023-08-07T09:22:55;101672.16;;;20.74;89.11
66273;BME280;58450;52.150;4.466;2023-08-07T09:25:28;101690.34;;;19.88;98.27
66273;BME280;58450;52.150;4.466;2023-08-07T09:27:57;101683.88;;;19.27;100.00
66273;BME280;58450;52.150;4.466;2023-08-07T09:30:26;101683.91;;;19.01;100.00
66273;BME280;58450;52.150;4.466;2023-08-07T09:32:56;101682.91;;;19.58;100.00
66273;BME280;58450;52.150;4.466;2023-08-07T09:35:24;101687.00;;;19.68;100.00
66273;BME280;58450;52.150;4.466;2023-08-07T09:37:53;101691.06;;;19.21;99.53
66273;BME280;58450;52.150;4.466;2023-08-07T09:40:21;101697.78;;;18.93;100.00
66273;BME280;58450;52.150;4.466;2023-08-07T09:42:50;101692.94;;;18.95;99.23
66273;BME280;58450;52.150;4.466;2023-08-07T09:45:20;101701.44;;;19.12;99.58
66273;BME280;58450;52.150;4.466;2023-08-07T09:47:58;101701.44;;;19.12;99.81
66273;BME280;58450;52.150;4.466;2023-08-07T09:50:27;101719.88;;;19.17;97.68
66273;BME280;58450;52.150;4.466;2023-08-07T09:52:57;101710.22;;;19.58;92.66
66273;BME280;58450;52.150;4.466;2023-08-07T09:55:25;101718.84;;;19.55;93.06
66273;BME280;58450;52.150;4.466;2023-08-07T09:57:54;101719.06;;;19.98;90.42
66273;BME280;58450;52.150;4.466;2023-08-07T10:00:21;101704.91;;;20.19;88.12
66273;BME280;58450;52.150;4.466;2023-08-07T10:02:50;101715.78;;;20.38;86.79
66273;BME280;58450;52.150;4.466;2023-08-07T10:05:21;101715.22;;;20.78;84.72
66273;BME280;58450;52.150;4.466;2023-08-07T10:07:50;101714.81;;;20.32;90.59
66273;BME280;58450;52.150;4.466;2023-08-07T10:10:22;101717.06;;;19.86;91.53
66273;BME280;58450;52.150;4.466;2023-08-07T10:12:52;101728.56;;;20.87;89.51
66273;BME280;58450;52.150;4.466;2023-08-07T10:15:21;101741.38;;;20.44;87.75
66273;BME280;58450;52.150;4.466;2023-08-07T10:17:49;101717.41;;;20.58;90.90
66273;BME280;58450;52.150;4.466;2023-08-07T10:20:17;101725.38;;;20.59;87.46
66273;BME280;58450;52.150;4.466;2023-08-07T10:22:44;101726.00;;;20.61;85.52
66273;BME280;58450;52.150;4.466;2023-08-07T10:25:13;101713.22;;;20.98;85.02
66273;BME280;58450;52.150;4.466;2023-08-07T10:27:49;101753.72;;;20.16;89.39
66273;BME280;58450;52.150;4.466;2023-08-07T10:30:21;101733.63;;;19.91;94.74
66273;BME280;58450;52.150;4.466;2023-08-07T10:32:51;101732.03;;;20.33;93.65
66273;BME280;58450;52.150;4.466;2023-08-07T10:35:24;101730.25;;;19.71;99.02
66273;BME280;58450;52.150;4.466;2023-08-07T10:37:52;101728.25;;;19.15;98.75
66273;BME280;58450;52.150;4.466;2023-08-07T10:40:20;101732.91;;;18.83;100.00
66273;BME280;58450;52.150;4.466;2023-08-07T10:42:55;101741.22;;;18.63;100.00
66273;BME280;58450;52.150;4.466;2023-08-07T10:45:25;101741.84;;;18.26;100.00
66273;BME280;58450;52.150;4.466;2023-08-07T10:47:58;101753.44;;;18.53;100.00
66273;BME280;58450;52.150;4.466;2023-08-07T10:50:30;101731.38;;;19.44;100.00
66273;BME280;58450;52.150;4.466;2023-08-07T10:53:00;101734.13;;;20.00;94.84
66273;BME280;58450;52.150;4.466;2023-08-07T10:55:31;101736.13;;;20.73;90.92
66273;BME280;58450;52.150;4.466;2023-08-07T10:58:22;101738.53;;;20.50;91.32
66273;BME280;58450;52.150;4.466;2023-08-07T11:00:52;101730.47;;;20.25;92.23
66273;BME280;58450;52.150;4.466;2023-08-07T11:03:25;101724.34;;;20.30;91.54
66273;BME280;58450;52.150;4.466;2023-08-07T11:05:57;101750.22;;;20.27;93.96
66273;BME280;58450;52.150;4.466;2023-08-07T11:08:25;101737.84;;;20.86;90.79
66273;BME280;58450;52.150;4.466;2023-08-07T11:10:53;101739.56;;;21.10;83.19
66273;BME280;58450;52.150;4.466;2023-08-07T11:13:23;101753.47;;;21.21;87.25
66273;BME280;58450;52.150;4.466;2023-08-07T11:15:51;101749.81;;;20.73;83.85
66273;BME280;58450;52.150;4.466;2023-08-07T11:18:19;101743.19;;;20.50;84.45
66273;BME280;58450;52.150;4.466;2023-08-07T11:20:48;101744.84;;;20.20;83.74
66273;BME280;58450;52.150;4.466;2023-08-07T11:23:15;101746.34;;;20.65;85.67
66273;BME280;58450;52.150;4.466;2023-08-07T11:25:43;101755.41;;;20.47;83.90
66273;BME280;58450;52.150;4.466;2023-08-07T11:28:10;101750.59;;;20.92;82.10
66273;BME280;58450;52.150;4.466;2023-08-07T11:30:40;101758.63;;;19.70;87.96
66273;BME280;58450;52.150;4.466;2023-08-07T11:33:07;101757.44;;;19.40;92.34
66273;BME280;58450;52.150;4.466;2023-08-07T11:35:40;101748.91;;;18.72;98.43
66273;BME280;58450;52.150;4.466;2023-08-07T11:38:09;101749.44;;;19.64;85.13
66273;BME280;58450;52.150;4.466;2023-08-07T11:40:36;101749.84;;;20.23;78.03
66273;BME280;58450;52.150;4.466;2023-08-07T11:43:04;101750.47;;;20.56;70.54
66273;BME280;58450;52.150;4.466;2023-08-07T11:45:32;101763.94;;;20.70;75.86
66273;BME280;58450;52.150;4.466;2023-08-07T11:48:01;101771.88;;;20.29;74.77
66273;BME280;58450;52.150;4.466;2023-08-07T11:50:29;101759.44;;;20.45;71.17
66273;BME280;58450;52.150;4.466;2023-08-07T11:52:58;101750.97;;;20.34;71.95
66273;BME280;58450;52.150;4.466;2023-08-07T11:55:28;101747.66;;;21.53;69.95
66273;BME280;58450;52.150;4.466;2023-08-07T11:57:56;101752.66;;;21.20;67.11
66273;BME280;58450;52.150;4.466;2023-08-07T12:00:25;101756.13;;;20.24;72.86
66273;BME280;58450;52.150;4.466;2023-08-07T12:02:53;101752.88;;;21.07;74.52
66273;BME280;58450;52.150;4.466;2023-08-07T12:05:23;101749.44;;;21.23;79.80
66273;BME280;58450;52.150;4.466;2023-08-07T12:07:51;101763.00;;;21.06;84.85
66273;BME280;58450;52.150;4.466;2023-08-07T12:10:19;101759.63;;;19.75;93.80
66273;BME280;58450;52.150;4.466;2023-08-07T12:12:46;101754.13;;;20.01;98.02
66273;BME280;58450;52.150;4.466;2023-08-07T12:15:16;101752.97;;;19.46;100.00
66273;BME280;58450;52.150;4.466;2023-08-07T12:17:44;101772.38;;;19.82;98.96
66273;BME280;58450;52.150;4.466;2023-08-07T12:20:16;101744.88;;;20.63;92.49
66273;BME280;58450;52.150;4.466;2023-08-07T12:22:46;101746.69;;;21.23;90.00
66273;BME280;58450;52.150;4.466;2023-08-07T12:25:14;101756.25;;;21.33;85.27
66273;BME280;58450;52.150;4.466;2023-08-07T12:27:42;101737.53;;;21.53;86.03
66273;BME280;58450;52.150;4.466;2023-08-07T12:30:13;101733.63;;;21.25;89.86
66273;BME280;58450;52.150;4.466;2023-08-07T12:32:42;101741.44;;;21.81;86.82
66273;BME280;58450;52.150;4.466;2023-08-07T12:35:10;101745.50;;;21.31;90.01
66273;BME280;58450;52.150;4.466;2023-08-07T12:37:37;101743.19;;;22.11;83.93
66273;BME280;58450;52.150;4.466;2023-08-07T12:40:07;101745.03;;;21.70;78.85
66273;BME280;58450;52.150;4.466;2023-08-07T12:42:36;101746.44;;;21.13;79.79
66273;BME280;58450;52.150;4.466;2023-08-07T12:45:05;101742.44;;;20.43;86.54
66273;BME280;58450;52.150;4.466;2023-08-07T12:47:32;101748.66;;;20.50;89.60
66273;BME280;58450;52.150;4.466;2023-08-07T12:50:00;101750.41;;;20.75;90.69
66273;BME280;58450;52.150;4.466;2023-08-07T12:52:29;101756.00;;;20.49;96.06